Terminal Aerodrome Forecast
Issued by NWS

Home | Current Version | Previous Version | Graphics & Text | Print | Product List | Glossary On
Versions: 1 2 3 4 5 6 7 8 9 10 11 12 13 14 15 16 17
000
FTUS43 KUNR 191135
TAFGCC
TAF
KGCC 191135Z 1912/2012 14013KT P6SM -SHRA OVC040
     FM191500 14017KT P6SM -RA OVC020
     FM200300 14008KT 5SM -RASN BR OVC010=

USA.gov is the U.S. government's official web portal to all federal, state and local government web resources and services.